sensor_id;sensor_type;location;lat;lon;timestamp;pressure;altitude;pressure_sealevel;temperature;humidity
13068;BME280;6600;51.362;6.686;2023-02-18T00:01:40;101844.59;;;12.36;100.00
13068;BME280;6600;51.362;6.686;2023-02-18T00:04:05;101839.44;;;12.41;100.00
13068;BME280;6600;51.362;6.686;2023-02-18T00:06:32;101836.97;;;12.40;100.00
13068;BME280;6600;51.362;6.686;2023-02-18T00:08:59;101846.88;;;12.39;100.00
13068;BME280;6600;51.362;6.686;2023-02-18T00:11:27;101830.94;;;12.38;100.00
13068;BME280;6600;51.362;6.686;2023-02-18T00:13:55;101829.75;;;12.47;100.00
13068;BME280;6600;51.362;6.686;2023-02-18T00:16:22;101821.47;;;12.48;100.00
13068;BME280;6600;51.362;6.686;2023-02-18T00:18:48;101821.03;;;12.38;100.00
13068;BME280;6600;51.362;6.686;2023-02-18T00:21:14;101822.28;;;12.42;100.00
13068;BME280;6600;51.362;6.686;2023-02-18T00:23:39;101810.06;;;12.33;100.00
13068;BME280;6600;51.362;6.686;2023-02-18T00:26:07;101810.72;;;12.48;100.00
13068;BME280;6600;51.362;6.686;2023-02-18T00:28:33;101806.16;;;12.42;100.00
13068;BME280;6600;51.362;6.686;2023-02-18T00:31:04;101811.53;;;12.42;100.00
13068;BME280;6600;51.362;6.686;2023-02-18T00:33:29;101807.38;;;12.40;100.00
13068;BME280;6600;51.362;6.686;2023-02-18T00:36:01;101809.09;;;12.47;100.00
13068;BME280;6600;51.362;6.686;2023-02-18T00:38:26;101816.06;;;12.42;100.00
13068;BME280;6600;51.362;6.686;2023-02-18T00:40:51;101811.78;;;12.47;100.00
13068;BME280;6600;51.362;6.686;2023-02-18T00:43:17;101809.09;;;12.47;100.00
13068;BME280;6600;51.362;6.686;2023-02-18T00:45:42;101801.84;;;12.48;100.00
13068;BME280;6600;51.362;6.686;2023-02-18T00:48:07;101794.22;;;12.51;100.00
13068;BME280;6600;51.362;6.686;2023-02-18T00:50:33;101791.72;;;12.50;100.00
13068;BME280;6600;51.362;6.686;2023-02-18T00:52:58;101786.31;;;12.43;100.00
13068;BME280;6600;51.362;6.686;2023-02-18T00:55:23;101798.75;;;12.44;100.00
13068;BME280;6600;51.362;6.686;2023-02-18T00:57:49;101777.22;;;12.44;100.00
13068;BME280;6600;51.362;6.686;2023-02-18T01:00:14;101788.34;;;12.41;100.00
13068;BME280;6600;51.362;6.686;2023-02-18T01:02:40;101776.59;;;12.42;100.00
13068;BME280;6600;51.362;6.686;2023-02-18T01:05:05;101786.28;;;12.37;100.00
13068;BME280;6600;51.362;6.686;2023-02-18T01:07:31;101771.81;;;12.38;100.00
13068;BME280;6600;51.362;6.686;2023-02-18T01:09:56;101781.34;;;12.40;100.00
13068;BME280;6600;51.362;6.686;2023-02-18T01:12:21;101768.50;;;12.36;100.00
13068;BME280;6600;51.362;6.686;2023-02-18T01:14:47;101768.28;;;12.31;100.00
13068;BME280;6600;51.362;6.686;2023-02-18T01:17:12;101771.78;;;12.31;100.00
13068;BME280;6600;51.362;6.686;2023-02-18T01:19:37;101778.22;;;12.30;100.00
13068;BME280;6600;51.362;6.686;2023-02-18T01:22:03;101776.72;;;12.28;100.00
13068;BME280;6600;51.362;6.686;2023-02-18T01:24:28;101777.16;;;12.31;100.00
13068;BME280;6600;51.362;6.686;2023-02-18T01:26:53;101773.03;;;12.35;100.00
13068;BME280;6600;51.362;6.686;2023-02-18T01:29:19;101769.34;;;12.36;100.00
13068;BME280;6600;51.362;6.686;2023-02-18T01:31:44;101757.31;;;12.32;100.00
13068;BME280;6600;51.362;6.686;2023-02-18T01:34:09;101764.97;;;12.29;100.00
13068;BME280;6600;51.362;6.686;2023-02-18T01:36:35;101757.13;;;12.27;100.00
13068;BME280;6600;51.362;6.686;2023-02-18T01:39:00;101749.47;;;12.31;100.00
13068;BME280;6600;51.362;6.686;2023-02-18T01:41:25;101747.38;;;12.26;100.00
13068;BME280;6600;51.362;6.686;2023-02-18T01:44:11;101739.78;;;12.36;100.00
13068;BME280;6600;51.362;6.686;2023-02-18T01:46:36;101749.06;;;12.27;100.00
13068;BME280;6600;51.362;6.686;2023-02-18T01:49:02;101745.97;;;12.30;100.00
13068;BME280;6600;51.362;6.686;2023-02-18T01:51:30;101739.94;;;12.28;100.00
13068;BME280;6600;51.362;6.686;2023-02-18T01:54:04;101739.53;;;12.31;100.00
13068;BME280;6600;51.362;6.686;2023-02-18T01:56:34;101730.84;;;12.29;100.00
13068;BME280;6600;51.362;6.686;2023-02-18T01:59:06;101724.63;;;12.22;100.00
13068;BME280;6600;51.362;6.686;2023-02-18T02:01:32;101728.75;;;12.18;100.00
13068;BME280;6600;51.362;6.686;2023-02-18T02:03:59;101733.25;;;12.11;100.00
13068;BME280;6600;51.362;6.686;2023-02-18T02:06:24;101728.75;;;12.18;100.00
13068;BME280;6600;51.362;6.686;2023-02-18T02:08:53;101715.97;;;12.20;100.00
13068;BME280;6600;51.362;6.686;2023-02-18T02:11:27;101727.72;;;12.19;100.00
13068;BME280;6600;51.362;6.686;2023-02-18T02:14:06;101725.63;;;12.14;100.00
13068;BME280;6600;51.362;6.686;2023-02-18T02:16:42;101719.03;;;12.17;100.00
13068;BME280;6600;51.362;6.686;2023-02-18T02:19:22;101720.69;;;12.18;100.00
13068;BME280;6600;51.362;6.686;2023-02-18T02:25:13;101713.88;;;12.22;100.00
13068;BME280;6600;51.362;6.686;2023-02-18T02:35:55;101704.78;;;12.17;100.00
13068;BME280;6600;51.362;6.686;2023-02-18T02:38:57;101699.84;;;12.20;100.00
13068;BME280;6600;51.362;6.686;2023-02-18T02:41:42;101702.13;;;12.23;100.00
13068;BME280;6600;51.362;6.686;2023-02-18T02:44:23;101703.13;;;12.22;100.00
13068;BME280;6600;51.362;6.686;2023-02-18T02:46:59;101696.09;;;12.21;100.00
13068;BME280;6600;51.362;6.686;2023-02-18T02:49:45;101687.19;;;12.14;100.00
13068;BME280;6600;51.362;6.686;2023-02-18T02:54:47;101682.03;;;12.12;100.00
13068;BME280;6600;51.362;6.686;2023-02-18T02:59:40;101687.38;;;12.06;100.00
13068;BME280;6600;51.362;6.686;2023-02-18T03:05:29;101679.94;;;12.08;100.00
13068;BME280;6600;51.362;6.686;2023-02-18T03:10:47;101663.00;;;12.14;100.00
13068;BME280;6600;51.362;6.686;2023-02-18T03:16:00;101652.66;;;12.11;100.00
13068;BME280;6600;51.362;6.686;2023-02-18T03:18:40;101653.31;;;12.13;100.00
13068;BME280;6600;51.362;6.686;2023-02-18T03:21:20;101647.94;;;12.13;100.00
13068;BME280;6600;51.362;6.686;2023-02-18T03:24:36;101643.16;;;12.08;100.00
13068;BME280;6600;51.362;6.686;2023-02-18T03:26:47;101644.19;;;12.14;100.00
13068;BME280;6600;51.362;6.686;2023-02-18T03:29:14;101629.13;;;12.06;100.00
13068;BME280;6600;51.362;6.686;2023-02-18T03:31:44;101635.31;;;12.13;100.00
13068;BME280;6600;51.362;6.686;2023-02-18T03:34:15;101625.81;;;12.11;100.00
13068;BME280;6600;51.362;6.686;2023-02-18T03:36:42;101624.16;;;12.10;100.00
13068;BME280;6600;51.362;6.686;2023-02-18T03:39:10;101618.16;;;12.08;100.00
13068;BME280;6600;51.362;6.686;2023-02-18T03:41:38;101612.16;;;12.06;100.00
13068;BME280;6600;51.362;6.686;2023-02-18T03:44:06;101602.25;;;12.13;100.00
13068;BME280;6600;51.362;6.686;2023-02-18T03:46:33;101596.06;;;12.06;100.00
13068;BME280;6600;51.362;6.686;2023-02-18T03:48:59;101603.47;;;12.04;100.00
13068;BME280;6600;51.362;6.686;2023-02-18T03:51:25;101602.22;;;12.00;100.00
13068;BME280;6600;51.362;6.686;2023-02-18T03:53:50;101597.06;;;11.98;100.00
13068;BME280;6600;51.362;6.686;2023-02-18T03:56:16;101592.53;;;11.99;100.00
13068;BME280;6600;51.362;6.686;2023-02-18T03:58:41;101593.13;;;12.01;100.00
13068;BME280;6600;51.362;6.686;2023-02-18T04:01:07;101596.47;;;12.03;100.00
13068;BME280;6600;51.362;6.686;2023-02-18T04:03:32;101601.00;;;11.96;100.00
13068;BME280;6600;51.362;6.686;2023-02-18T04:05:58;101589.00;;;11.92;100.00
13068;BME280;6600;51.362;6.686;2023-02-18T04:08:24;101589.41;;;11.89;100.00
13068;BME280;6600;51.362;6.686;2023-02-18T04:10:49;101581.97;;;11.91;100.00
13068;BME280;6600;51.362;6.686;2023-02-18T04:13:15;101586.09;;;11.93;100.00
13068;BME280;6600;51.362;6.686;2023-02-18T04:15:41;101581.97;;;12.04;100.00
13068;BME280;6600;51.362;6.686;2023-02-18T04:18:07;101577.00;;;11.94;100.00
13068;BME280;6600;51.362;6.686;2023-02-18T04:20:32;101579.69;;;11.88;100.00
13068;BME280;6600;51.362;6.686;2023-02-18T04:22:57;101572.88;;;11.92;100.00
13068;BME280;6600;51.362;6.686;2023-02-18T04:25:23;101582.13;;;11.83;100.00
13068;BME280;6600;51.362;6.686;2023-02-18T04:27:48;101570.78;;;11.87;100.00
13068;BME280;6600;51.362;6.686;2023-02-18T04:30:14;101571.22;;;11.91;100.00
13068;BME280;6600;51.362;6.686;2023-02-18T04:32:39;101575.13;;;11.82;100.00
13068;BME280;6600;51.362;6.686;2023-02-18T04:35:04;101569.75;;;11.82;100.00
13068;BME280;6600;51.362;6.686;2023-02-18T04:37:30;101572.00;;;11.72;100.00
13068;BME280;6600;51.362;6.686;2023-02-18T04:39:55;101561.69;;;11.82;100.00
13068;BME280;6600;51.362;6.686;2023-02-18T04:42:21;101558.78;;;11.83;100.00
13068;BME280;6600;51.362;6.686;2023-02-18T04:44:46;101555.91;;;11.72;100.00
13068;BME280;6600;51.362;6.686;2023-02-18T04:47:12;101554.44;;;11.76;100.00
13068;BME280;6600;51.362;6.686;2023-02-18T04:49:37;101550.13;;;11.75;100.00
13068;BME280;6600;51.362;6.686;2023-02-18T04:52:02;101545.91;;;11.65;100.00
13068;BME280;6600;51.362;6.686;2023-02-18T04:54:28;101548.84;;;11.71;100.00
13068;BME280;6600;51.362;6.686;2023-02-18T04:56:53;101536.00;;;11.66;100.00
13068;BME280;6600;51.362;6.686;2023-02-18T04:59:19;101539.53;;;11.66;100.00
13068;BME280;6600;51.362;6.686;2023-02-18T05:01:44;101533.53;;;11.64;100.00
13068;BME280;6600;51.362;6.686;2023-02-18T05:04:09;101534.31;;;11.58;100.00
13068;BME280;6600;51.362;6.686;2023-02-18T05:06:35;101533.94;;;11.61;100.00
13068;BME280;6600;51.362;6.686;2023-02-18T05:09:02;101530.84;;;11.58;100.00
13068;BME280;6600;51.362;6.686;2023-02-18T05:11:27;101529.38;;;11.55;100.00
13068;BME280;6600;51.362;6.686;2023-02-18T05:13:52;101524.00;;;11.55;100.00
13068;BME280;6600;51.362;6.686;2023-02-18T05:16:18;101523.16;;;11.48;100.00
13068;BME280;6600;51.362;6.686;2023-02-18T05:18:43;101518.19;;;11.52;100.00
13068;BME280;6600;51.362;6.686;2023-02-18T05:21:08;101517.78;;;11.48;100.00
13068;BME280;6600;51.362;6.686;2023-02-18T05:23:36;101516.59;;;11.57;100.00
13068;BME280;6600;51.362;6.686;2023-02-18T05:26:01;101500.03;;;11.47;100.00
13068;BME280;6600;51.362;6.686;2023-02-18T05:28:26;101493.03;;;11.53;100.00
13068;BME280;6600;51.362;6.686;2023-02-18T05:30:52;101497.56;;;11.52;100.00
13068;BME280;6600;51.362;6.686;2023-02-18T05:33:17;101490.94;;;11.48;100.00
13068;BME280;6600;51.362;6.686;2023-02-18T05:35:42;101497.97;;;11.49;100.00
13068;BME280;6600;51.362;6.686;2023-02-18T05:38:08;101490.94;;;11.42;100.00
13068;BME280;6600;51.362;6.686;2023-02-18T05:40:34;101491.56;;;11.44;100.00
13068;BME280;6600;51.362;6.686;2023-02-18T05:42:59;101480.84;;;11.44;100.00
13068;BME280;6600;51.362;6.686;2023-02-18T05:45:25;101480.84;;;11.50;100.00
13068;BME280;6600;51.362;6.686;2023-02-18T05:47:50;101470.72;;;11.52;100.00
13068;BME280;6600;51.362;6.686;2023-02-18T05:50:16;101470.31;;;11.55;100.00
13068;BME280;6600;51.362;6.686;2023-02-18T05:52:41;101461.22;;;11.50;100.00
13068;BME280;6600;51.362;6.686;2023-02-18T05:55:07;101457.94;;;11.54;100.00
13068;BME280;6600;51.362;6.686;2023-02-18T05:57:32;101457.09;;;11.47;100.00
13068;BME280;6600;51.362;6.686;2023-02-18T05:59:57;101455.84;;;11.43;100.00
13068;BME280;6600;51.362;6.686;2023-02-18T06:02:23;101458.13;;;11.46;100.00
13068;BME280;6600;51.362;6.686;2023-02-18T06:04:48;101459.16;;;11.45;100.00
13068;BME280;6600;51.362;6.686;2023-02-18T06:07:13;101453.56;;;11.40;100.00
13068;BME280;6600;51.362;6.686;2023-02-18T06:09:39;101462.47;;;11.47;100.00
13068;BME280;6600;51.362;6.686;2023-02-18T06:12:05;101462.66;;;11.46;100.00
13068;BME280;6600;51.362;6.686;2023-02-18T06:14:30;101451.94;;;11.46;100.00
13068;BME280;6600;51.362;6.686;2023-02-18T06:16:56;101462.69;;;11.52;100.00
13068;BME280;6600;51.362;6.686;2023-02-18T06:19:21;101458.34;;;11.51;100.00
13068;BME280;6600;51.362;6.686;2023-02-18T06:21:46;101451.94;;;11.46;100.00
13068;BME280;6600;51.362;6.686;2023-02-18T06:24:12;101469.47;;;11.42;100.00
13068;BME280;6600;51.362;6.686;2023-02-18T06:26:37;101449.88;;;11.48;100.00
13068;BME280;6600;51.362;6.686;2023-02-18T06:29:03;101443.47;;;11.42;100.00
13068;BME280;6600;51.362;6.686;2023-02-18T06:31:28;101448.00;;;11.48;100.00
13068;BME280;6600;51.362;6.686;2023-02-18T06:33:54;101443.03;;;11.45;100.00
13068;BME280;6600;51.362;6.686;2023-02-18T06:36:19;101457.09;;;11.47;100.00
13068;BME280;6600;51.362;6.686;2023-02-18T06:38:44;101443.28;;;11.50;100.00
13068;BME280;6600;51.362;6.686;2023-02-18T06:41:11;101454.19;;;11.49;100.00
13068;BME280;6600;51.362;6.686;2023-02-18T06:43:37;101455.03;;;11.56;100.00
13068;BME280;6600;51.362;6.686;2023-02-18T06:46:03;101468.69;;;11.54;100.00
13068;BME280;6600;51.362;6.686;2023-02-18T06:48:29;101456.28;;;11.53;100.00
13068;BME280;6600;51.362;6.686;2023-02-18T06:50:54;101456.09;;;11.61;100.00
13068;BME280;6600;51.362;6.686;2023-02-18T06:53:20;101470.72;;;11.52;100.00
13068;BME280;6600;51.362;6.686;2023-02-18T06:55:46;101472.78;;;11.50;100.00
13068;BME280;6600;51.362;6.686;2023-02-18T06:58:12;101472.81;;;11.57;100.00
13068;BME280;6600;51.362;6.686;2023-02-18T07:00:38;101481.28;;;11.60;100.00
13068;BME280;6600;51.362;6.686;2023-02-18T07:03:04;101473.44;;;11.65;100.00
13068;BME280;6600;51.362;6.686;2023-02-18T07:05:29;101471.38;;;11.68;100.00
13068;BME280;6600;51.362;6.686;2023-02-18T07:07:55;101464.56;;;11.65;100.00
13068;BME280;6600;51.362;6.686;2023-02-18T07:10:20;101467.88;;;11.60;100.00
13068;BME280;6600;51.362;6.686;2023-02-18T07:12:46;101462.94;;;11.71;100.00
13068;BME280;6600;51.362;6.686;2023-02-18T07:15:12;101459.44;;;11.77;100.00
13068;BME280;6600;51.362;6.686;2023-02-18T07:17:37;101454.25;;;11.69;100.00
13068;BME280;6600;51.362;6.686;2023-02-18T07:20:04;101458.00;;;11.74;100.00
13068;BME280;6600;51.362;6.686;2023-02-18T07:22:29;101454.72;;;11.79;100.00
13068;BME280;6600;51.362;6.686;2023-02-18T07:24:55;101467.50;;;11.77;100.00
13068;BME280;6600;51.362;6.686;2023-02-18T07:27:21;101464.19;;;11.75;100.00
13068;BME280;6600;51.362;6.686;2023-02-18T07:29:47;101464.19;;;11.75;100.00
13068;BME280;6600;51.362;6.686;2023-02-18T07:32:14;101479.47;;;11.81;100.00
13068;BME280;6600;51.362;6.686;2023-02-18T07:34:39;101476.59;;;11.82;100.00
13068;BME280;6600;51.362;6.686;2023-02-18T07:37:05;101472.44;;;11.80;100.00
13068;BME280;6600;51.362;6.686;2023-02-18T07:39:39;101479.28;;;11.89;100.00
13068;BME280;6600;51.362;6.686;2023-02-18T07:42:04;101496.84;;;11.85;100.00
13068;BME280;6600;51.362;6.686;2023-02-18T07:44:30;101500.13;;;11.87;100.00
13068;BME280;6600;51.362;6.686;2023-02-18T07:46:55;101500.53;;;11.71;100.00
13068;BME280;6600;51.362;6.686;2023-02-18T07:49:21;101505.09;;;11.77;100.00
13068;BME280;6600;51.362;6.686;2023-02-18T07:51:47;101503.66;;;11.74;100.00
13068;BME280;6600;51.362;6.686;2023-02-18T07:54:13;101496.81;;;11.72;100.00
13068;BME280;6600;51.362;6.686;2023-02-18T07:56:39;101491.41;;;11.65;100.00
13068;BME280;6600;51.362;6.686;2023-02-18T07:59:05;101489.34;;;11.67;100.00
13068;BME280;6600;51.362;6.686;2023-02-18T08:01:30;101497.56;;;11.59;100.00
13068;BME280;6600;51.362;6.686;2023-02-18T08:03:56;101507.88;;;11.55;100.00
13068;BME280;6600;51.362;6.686;2023-02-18T08:06:27;101513.88;;;11.44;100.00
13068;BME280;6600;51.362;6.686;2023-02-18T08:08:54;101517.56;;;11.43;100.00
13068;BME280;6600;51.362;6.686;2023-02-18T08:11:19;101519.44;;;11.49;100.00
13068;BME280;6600;51.362;6.686;2023-02-18T08:13:45;101518.63;;;11.55;100.00
13068;BME280;6600;51.362;6.686;2023-02-18T08:16:10;101530.41;;;11.48;100.00
13068;BME280;6600;51.362;6.686;2023-02-18T08:18:35;101526.88;;;11.47;100.00
13068;BME280;6600;51.362;6.686;2023-02-18T08:21:01;101513.22;;;11.42;100.00
13068;BME280;6600;51.362;6.686;2023-02-18T08:23:26;101517.75;;;11.35;100.00
13068;BME280;6600;51.362;6.686;2023-02-18T08:25:52;101524.31;;;11.26;100.00
13068;BME280;6600;51.362;6.686;2023-02-18T08:28:20;101520.13;;;11.17;100.00
13068;BME280;6600;51.362;6.686;2023-02-18T08:30:47;101530.41;;;11.07;100.00
13068;BME280;6600;51.362;6.686;2023-02-18T08:33:13;101518.28;;;11.18;100.00
13068;BME280;6600;51.362;6.686;2023-02-18T08:35:38;101512.75;;;11.26;100.00
13068;BME280;6600;51.362;6.686;2023-02-18T08:38:04;101518.97;;;11.33;100.00
13068;BME280;6600;51.362;6.686;2023-02-18T08:40:29;101519.38;;;11.30;100.00
13068;BME280;6600;51.362;6.686;2023-02-18T08:42:54;101505.31;;;11.21;100.00
13068;BME280;6600;51.362;6.686;2023-02-18T08:45:21;101527.00;;;11.26;100.00
13068;BME280;6600;51.362;6.686;2023-02-18T08:47:46;101514.59;;;11.25;100.00
13068;BME280;6600;51.362;6.686;2023-02-18T08:50:12;101534.66;;;11.29;100.00
13068;BME280;6600;51.362;6.686;2023-02-18T08:52:37;101514.84;;;11.30;100.00
13068;BME280;6600;51.362;6.686;2023-02-18T08:55:03;101519.13;;;11.25;100.00
13068;BME280;6600;51.362;6.686;2023-02-18T08:57:29;101519.53;;;11.22;100.00
13068;BME280;6600;51.362;6.686;2023-02-18T08:59:54;101512.34;;;11.29;100.00
13068;BME280;6600;51.362;6.686;2023-02-18T09:02:19;101509.47;;;11.30;100.00
13068;BME280;6600;51.362;6.686;2023-02-18T09:04:45;101513.78;;;11.31;100.00
13068;BME280;6600;51.362;6.686;2023-02-18T09:07:10;101524.31;;;11.26;100.00
13068;BME280;6600;51.362;6.686;2023-02-18T09:09:35;101513.19;;;11.29;100.00
13068;BME280;6600;51.362;6.686;2023-02-18T09:12:01;101502.91;;;11.39;100.00
13068;BME280;6600;51.362;6.686;2023-02-18T09:14:26;101501.44;;;11.30;100.00
13068;BME280;6600;51.362;6.686;2023-02-18T09:16:52;101495.44;;;11.35;100.00
13068;BME280;6600;51.362;6.686;2023-02-18T09:19:17;101492.97;;;11.33;100.00
13068;BME280;6600;51.362;6.686;2023-02-18T09:21:43;101500.38;;;11.31;100.00
13068;BME280;6600;51.362;6.686;2023-02-18T09:24:08;101505.31;;;11.21;100.00
13068;BME280;6600;51.362;6.686;2023-02-18T09:26:35;101498.34;;;11.33;100.00
13068;BME280;6600;51.362;6.686;2023-02-18T09:29:01;101509.06;;;11.33;100.00
13068;BME280;6600;51.362;6.686;2023-02-18T09:31:27;101507.22;;;11.34;100.00
13068;BME280;6600;51.362;6.686;2023-02-18T09:33:58;101501.22;;;11.38;100.00
13068;BME280;6600;51.362;6.686;2023-02-18T09:36:24;101504.13;;;11.37;100.00
13068;BME280;6600;51.362;6.686;2023-02-18T09:38:50;101503.50;;;11.41;100.00
13068;BME280;6600;51.362;6.686;2023-02-18T09:41:40;101505.19;;;11.42;100.00
13068;BME280;6600;51.362;6.686;2023-02-18T09:44:28;101495.09;;;11.44;100.00
13068;BME280;6600;51.362;6.686;2023-02-18T09:46:59;101502.94;;;11.59;100.00
13068;BME280;6600;51.362;6.686;2023-02-18T09:49:29;101507.47;;;11.58;100.00
13068;BME280;6600;51.362;6.686;2023-02-18T09:52:10;101488.09;;;11.70;100.00
13068;BME280;6600;51.362;6.686;2023-02-18T09:54:36;101491.84;;;11.69;100.00
13068;BME280;6600;51.362;6.686;2023-02-18T09:57:02;101489.75;;;11.57;100.00
13068;BME280;6600;51.362;6.686;2023-02-18T09:59:28;101485.19;;;11.51;100.00
13068;BME280;6600;51.362;6.686;2023-02-18T10:01:54;101490.59;;;11.64;100.00
13068;BME280;6600;51.362;6.686;2023-02-18T10:04:26;101472.66;;;11.72;100.00
13068;BME280;6600;51.362;6.686;2023-02-18T10:06:55;101485.88;;;11.73;100.00
13068;BME280;6600;51.362;6.686;2023-02-18T10:09:24;101481.75;;;11.71;100.00
13068;BME280;6600;51.362;6.686;2023-02-18T10:11:59;101481.94;;;11.76;100.00
13068;BME280;6600;51.362;6.686;2023-02-18T10:14:27;101487.91;;;11.64;100.00
13068;BME280;6600;51.362;6.686;2023-02-18T10:16:52;101494.91;;;11.65;100.00
13068;BME280;6600;51.362;6.686;2023-02-18T10:19:27;101487.72;;;11.73;100.00
13068;BME280;6600;51.362;6.686;2023-02-18T10:21:53;101494.28;;;11.57;100.00
13068;BME280;6600;51.362;6.686;2023-02-18T10:24:41;101506.25;;;11.54;100.00
13068;BME280;6600;51.362;6.686;2023-02-18T10:27:09;101503.75;;;11.53;100.00
13068;BME280;6600;51.362;6.686;2023-02-18T10:29:40;101505.59;;;11.39;100.00
13068;BME280;6600;51.362;6.686;2023-02-18T10:34:40;101515.09;;;11.48;100.00
13068;BME280;6600;51.362;6.686;2023-02-18T10:37:18;101516.59;;;11.57;100.00
13068;BME280;6600;51.362;6.686;2023-02-18T10:40:08;101516.56;;;11.44;100.00
13068;BME280;6600;51.362;6.686;2023-02-18T10:50:34;101520.13;;;11.17;100.00
13068;BME280;6600;51.362;6.686;2023-02-18T10:53:09;101523.31;;;11.34;100.00
13068;BME280;6600;51.362;6.686;2023-02-18T10:55:42;101529.69;;;11.26;100.00
13068;BME280;6600;51.362;6.686;2023-02-18T10:58:49;101529.44;;;11.21;100.00
13068;BME280;6600;51.362;6.686;2023-02-18T11:01:19;101533.38;;;11.25;100.00
13068;BME280;6600;51.362;6.686;2023-02-18T11:03:49;101532.56;;;11.25;100.00
13068;BME280;6600;51.362;6.686;2023-02-18T11:06:20;101535.66;;;11.28;100.00
13068;BME280;6600;51.362;6.686;2023-02-18T11:08:46;101526.75;;;11.21;100.00
13068;BME280;6600;51.362;6.686;2023-02-18T11:11:21;101525.75;;;11.22;100.00
13068;BME280;6600;51.362;6.686;2023-02-18T11:13:59;101535.63;;;11.15;100.00
13068;BME280;6600;51.362;6.686;2023-02-18T11:16:42;101528.78;;;11.06;100.00
13068;BME280;6600;51.362;6.686;2023-02-18T11:19:33;101530.41;;;11.07;100.00
13068;BME280;6600;51.362;6.686;2023-02-18T11:24:44;101539.06;;;11.02;100.00
13068;BME280;6600;51.362;6.686;2023-02-18T11:27:30;101529.19;;;11.03;100.00
13068;BME280;6600;51.362;6.686;2023-02-18T11:30:03;101530.66;;;11.12;100.00
13068;BME280;6600;51.362;6.686;2023-02-18T11:32:29;101528.81;;;11.19;100.00
13068;BME280;6600;51.362;6.686;2023-02-18T11:34:57;101535.63;;;11.15;100.00
13068;BME280;6600;51.362;6.686;2023-02-18T11:37:23;101521.78;;;11.11;100.00
13068;BME280;6600;51.362;6.686;2023-02-18T11:39:51;101527.13;;;11.11;100.00
13068;BME280;6600;51.362;6.686;2023-02-18T11:42:22;101535.41;;;11.10;100.00
13068;BME280;6600;51.362;6.686;2023-02-18T11:44:52;101535.06;;;11.26;100.00
13068;BME280;6600;51.362;6.686;2023-02-18T11:47:27;101530.88;;;11.17;100.00
13068;BME280;6600;51.362;6.686;2023-02-18T11:52:27;101533.75;;;11.15;100.00
13068;BME280;6600;51.362;6.686;2023-02-18T11:57:31;101536.22;;;11.17;100.00
13068;BME280;6600;51.362;6.686;2023-02-18T11:59:58;101531.94;;;11.23;100.00
13068;BME280;6600;51.362;6.686;2023-02-18T12:02:33;101533.38;;;11.19;100.00
13068;BME280;6600;51.362;6.686;2023-02-18T12:05:10;101533.38;;;11.25;100.00
13068;BME280;6600;51.362;6.686;2023-02-18T12:08:17;101531.81;;;11.37;100.00
13068;BME280;6600;51.362;6.686;2023-02-18T12:10:52;101524.31;;;11.26;100.00
13068;BME280;6600;51.362;6.686;2023-02-18T12:13:26;101521.44;;;11.34;100.00
13068;BME280;6600;51.362;6.686;2023-02-18T12:18:59;101522.78;;;11.51;100.00
13068;BME280;6600;51.362;6.686;2023-02-18T12:27:19;101526.88;;;11.47;100.00
13068;BME280;6600;51.362;6.686;2023-02-18T12:35:18;101524.34;;;11.33;100.00
13068;BME280;6600;51.362;6.686;2023-02-18T12:38:22;101519.16;;;11.31;100.00
13068;BME280;6600;51.362;6.686;2023-02-18T12:54:38;101519.69;;;11.54;100.00
13068;BME280;6600;51.362;6.686;2023-02-18T12:57:30;101513.69;;;11.59;100.00
13068;BME280;6600;51.362;6.686;2023-02-18T13:02:47;101513.47;;;11.47;100.00
13068;BME280;6600;51.362;6.686;2023-02-18T13:10:32;101503.34;;;11.49;100.00
13068;BME280;6600;51.362;6.686;2023-02-18T13:13:15;101510.38;;;11.50;100.00
13068;BME280;6600;51.362;6.686;2023-02-18T13:15:46;101512.63;;;11.40;100.00
13068;BME280;6600;51.362;6.686;2023-02-18T13:18:22;101512.41;;;11.48;100.00
13068;BME280;6600;51.362;6.686;2023-02-18T13:20:51;101521.50;;;11.47;100.00
13068;BME280;6600;51.362;6.686;2023-02-18T13:23:25;101514.47;;;11.40;100.00
13068;BME280;6600;51.362;6.686;2023-02-18T13:25:56;101515.91;;;11.42;100.00
13068;BME280;6600;51.362;6.686;2023-02-18T13:28:28;101517.34;;;11.38;100.00
13068;BME280;6600;51.362;6.686;2023-02-18T13:39:30;101517.75;;;11.35;100.00
13068;BME280;6600;51.362;6.686;2023-02-18T13:47:49;101507.84;;;11.42;100.00
13068;BME280;6600;51.362;6.686;2023-02-18T13:55:53;101504.19;;;11.56;100.00
13068;BME280;6600;51.362;6.686;2023-02-18T13:58:23;101497.78;;;11.57;100.00
13068;BME280;6600;51.362;6.686;2023-02-18T14:00:58;101509.78;;;11.61;100.00
13068;BME280;6600;51.362;6.686;2023-02-18T14:06:35;101503.41;;;11.76;100.00
13068;BME280;6600;51.362;6.686;2023-02-18T14:11:55;101499.31;;;11.80;100.00
13068;BME280;6600;51.362;6.686;2023-02-18T14:25:26;101498.09;;;11.89;100.00
13068;BME280;6600;51.362;6.686;2023-02-18T14:27:51;101505.94;;;11.84;100.00
13068;BME280;6600;51.362;6.686;2023-02-18T14:32:48;101507.19;;;11.88;100.00
13068;BME280;6600;51.362;6.686;2023-02-18T14:35:24;101507.59;;;11.91;100.00
13068;BME280;6600;51.362;6.686;2023-02-18T14:46:32;101498.88;;;11.83;100.00
13068;BME280;6600;51.362;6.686;2023-02-18T14:51:32;101499.72;;;11.77;100.00
13068;BME280;6600;51.362;6.686;2023-02-18T14:54:03;101497.03;;;11.77;100.00
13068;BME280;6600;51.362;6.686;2023-02-18T14:56:31;101484.84;;;11.81;100.00
13068;BME280;6600;51.362;6.686;2023-02-18T14:58:59;101493.53;;;11.83;100.00
13068;BME280;6600;51.362;6.686;2023-02-18T15:01:32;101483.41;;;11.78;100.00
13068;BME280;6600;51.362;6.686;2023-02-18T15:03:59;101493.53;;;11.83;100.00
13068;BME280;6600;51.362;6.686;2023-02-18T15:06:34;101493.53;;;11.83;100.00
13068;BME280;6600;51.362;6.686;2023-02-18T15:09:12;101493.31;;;11.78;100.00